Pittsford Mills, Vermont
Current Conditions -  °F | °C
As of 3:55 AM on Saturday 22 Nov 2014 (Local Time) from KRUT Reporting Station
Overcast Overcast  
Wind Chill: -10°   Ceiling: 4000
Heat Index: -5°   Visibility: 10mi
Dew Point: -11°   Wind: 7mph
Humidity: 63%   Direction: 210°SSW
Pressure: 30.33"   Gusts: NA
Location:  43.7419°N, 73.0064°W
Report Text: KRUT 220855Z 21006KT 10SM OVC040 M05/M11 A3033 RMK AO1 57007
Loading
Personal Weather Stations






























Interactive Weather Map New forecast layout! Learn more

10-Day Weather Forecast

Advertisements
Track Severe Weather on mobile